Mine Centre, Canada
Current Conditions -  °F | °C
As of 2:28 AM on Monday 22 Dec 2014 (Local Time) from KCDD Reporting Station
Haze Haze  
Wind Chill: 32°   Ceiling: 500
Heat Index: 32°   Visibility: 2.5mi
Dew Point: 30°   Wind: 0mph
Humidity: 93%   Direction: NA
Pressure: 29.7"   Gusts: NA
Location:  48.76°N, 92.64°W
Report Text: KCDD 220828Z AUTO 00000KT 2 1/2SM BR OVC005 00/M01 A2970 RMK AO2
Loading
Personal Weather Stations






























Interactive Weather Map New forecast layout! Learn more

10-Day Weather Forecast

Advertisements
Track Severe Weather on mobile